sensor_id;sensor_type;location;lat;lon;timestamp;temperature;humidity
26164;DHT22;13914;48.178;11.716;2023-04-06T00:01:06;1.70;62.70
26164;DHT22;13914;48.178;11.716;2023-04-06T00:03:32;1.60;62.70
26164;DHT22;13914;48.178;11.716;2023-04-06T00:05:58;1.60;62.80
26164;DHT22;13914;48.178;11.716;2023-04-06T00:08:25;1.60;62.80
26164;DHT22;13914;48.178;11.716;2023-04-06T00:10:51;1.50;62.80
26164;DHT22;13914;48.178;11.716;2023-04-06T00:13:16;1.50;62.90
26164;DHT22;13914;48.178;11.716;2023-04-06T00:15:42;1.50;62.90
26164;DHT22;13914;48.178;11.716;2023-04-06T00:18:08;1.50;63.00
26164;DHT22;13914;48.178;11.716;2023-04-06T00:20:33;1.50;63.00
26164;DHT22;13914;48.178;11.716;2023-04-06T00:22:59;1.40;62.90
26164;DHT22;13914;48.178;11.716;2023-04-06T00:25:25;1.40;62.90
26164;DHT22;13914;48.178;11.716;2023-04-06T00:27:51;1.40;62.90
26164;DHT22;13914;48.178;11.716;2023-04-06T00:30:16;1.30;62.80
26164;DHT22;13914;48.178;11.716;2023-04-06T00:32:42;1.30;62.90
26164;DHT22;13914;48.178;11.716;2023-04-06T00:35:08;1.30;63.00
26164;DHT22;13914;48.178;11.716;2023-04-06T00:37:34;1.30;62.60
26164;DHT22;13914;48.178;11.716;2023-04-06T00:39:59;1.30;62.80
26164;DHT22;13914;48.178;11.716;2023-04-06T00:42:25;1.20;63.00
26164;DHT22;13914;48.178;11.716;2023-04-06T00:44:52;1.20;63.00
26164;DHT22;13914;48.178;11.716;2023-04-06T00:47:22;1.10;62.90
26164;DHT22;13914;48.178;11.716;2023-04-06T00:49:48;1.10;63.00
26164;DHT22;13914;48.178;11.716;2023-04-06T00:52:14;1.10;63.10
26164;DHT22;13914;48.178;11.716;2023-04-06T00:54:41;1.10;63.00
26164;DHT22;13914;48.178;11.716;2023-04-06T00:57:07;1.00;63.00
26164;DHT22;13914;48.178;11.716;2023-04-06T00:59:32;1.00;62.90
26164;DHT22;13914;48.178;11.716;2023-04-06T01:01:58;1.00;63.10
26164;DHT22;13914;48.178;11.716;2023-04-06T01:04:24;1.00;63.20
26164;DHT22;13914;48.178;11.716;2023-04-06T01:06:50;1.00;63.10
26164;DHT22;13914;48.178;11.716;2023-04-06T01:09:19;0.90;63.20
26164;DHT22;13914;48.178;11.716;2023-04-06T01:11:44;0.90;63.20
26164;DHT22;13914;48.178;11.716;2023-04-06T01:14:10;0.90;63.30
26164;DHT22;13914;48.178;11.716;2023-04-06T01:16:36;0.90;63.30
26164;DHT22;13914;48.178;11.716;2023-04-06T01:19:07;0.80;63.20
26164;DHT22;13914;48.178;11.716;2023-04-06T01:21:34;0.80;63.00
26164;DHT22;13914;48.178;11.716;2023-04-06T01:24:00;0.70;63.30
26164;DHT22;13914;48.178;11.716;2023-04-06T01:26:25;0.80;63.30
26164;DHT22;13914;48.178;11.716;2023-04-06T01:28:52;0.70;63.30
26164;DHT22;13914;48.178;11.716;2023-04-06T01:31:17;0.70;63.40
26164;DHT22;13914;48.178;11.716;2023-04-06T01:33:43;0.60;63.40
26164;DHT22;13914;48.178;11.716;2023-04-06T01:36:09;0.60;63.30
26164;DHT22;13914;48.178;11.716;2023-04-06T01:38:35;0.60;63.40
26164;DHT22;13914;48.178;11.716;2023-04-06T01:41:00;0.60;63.40
26164;DHT22;13914;48.178;11.716;2023-04-06T01:43:26;0.60;63.40
26164;DHT22;13914;48.178;11.716;2023-04-06T01:45:52;0.50;63.40
26164;DHT22;13914;48.178;11.716;2023-04-06T01:48:18;0.50;63.50
26164;DHT22;13914;48.178;11.716;2023-04-06T01:50:43;0.50;63.40
26164;DHT22;13914;48.178;11.716;2023-04-06T01:53:09;0.50;63.40
26164;DHT22;13914;48.178;11.716;2023-04-06T01:55:35;0.40;63.40
26164;DHT22;13914;48.178;11.716;2023-04-06T01:58:01;0.40;63.40
26164;DHT22;13914;48.178;11.716;2023-04-06T02:00:26;0.40;63.40
26164;DHT22;13914;48.178;11.716;2023-04-06T02:02:52;0.40;63.40
26164;DHT22;13914;48.178;11.716;2023-04-06T02:05:19;0.30;63.40
26164;DHT22;13914;48.178;11.716;2023-04-06T02:07:45;0.40;63.40
26164;DHT22;13914;48.178;11.716;2023-04-06T02:10:12;0.30;63.50
26164;DHT22;13914;48.178;11.716;2023-04-06T02:12:38;0.30;63.50
26164;DHT22;13914;48.178;11.716;2023-04-06T02:15:04;0.30;63.60
26164;DHT22;13914;48.178;11.716;2023-04-06T02:17:30;0.30;63.60
26164;DHT22;13914;48.178;11.716;2023-04-06T02:19:56;0.30;63.70
26164;DHT22;13914;48.178;11.716;2023-04-06T02:22:21;0.20;63.60
26164;DHT22;13914;48.178;11.716;2023-04-06T02:24:47;0.20;63.60
26164;DHT22;13914;48.178;11.716;2023-04-06T02:27:13;0.20;63.70
26164;DHT22;13914;48.178;11.716;2023-04-06T02:29:39;0.20;63.80
26164;DHT22;13914;48.178;11.716;2023-04-06T02:32:05;0.20;63.80
26164;DHT22;13914;48.178;11.716;2023-04-06T02:34:31;0.20;63.60
26164;DHT22;13914;48.178;11.716;2023-04-06T02:36:56;0.10;63.70
26164;DHT22;13914;48.178;11.716;2023-04-06T02:39:22;0.10;63.60
26164;DHT22;13914;48.178;11.716;2023-04-06T02:41:48;0.10;63.70
26164;DHT22;13914;48.178;11.716;2023-04-06T02:44:13;0.10;64.70
26164;DHT22;13914;48.178;11.716;2023-04-06T02:46:39;0.10;63.80
26164;DHT22;13914;48.178;11.716;2023-04-06T02:49:05;0.00;63.80
26164;DHT22;13914;48.178;11.716;2023-04-06T02:51:31;0.00;63.80
26164;DHT22;13914;48.178;11.716;2023-04-06T02:53:57;0.00;63.80
26164;DHT22;13914;48.178;11.716;2023-04-06T02:56:23;0.00;63.70
26164;DHT22;13914;48.178;11.716;2023-04-06T02:58:48;-0.10;63.70
26164;DHT22;13914;48.178;11.716;2023-04-06T03:01:14;0.00;63.80
26164;DHT22;13914;48.178;11.716;2023-04-06T03:03:40;-0.10;63.70
26164;DHT22;13914;48.178;11.716;2023-04-06T03:06:06;-0.10;63.70
26164;DHT22;13914;48.178;11.716;2023-04-06T03:08:32;-0.10;63.70
26164;DHT22;13914;48.178;11.716;2023-04-06T03:10:57;-0.10;63.70
26164;DHT22;13914;48.178;11.716;2023-04-06T03:13:23;-0.20;63.80
26164;DHT22;13914;48.178;11.716;2023-04-06T03:15:49;-0.20;63.90
26164;DHT22;13914;48.178;11.716;2023-04-06T03:18:14;-0.20;63.90
26164;DHT22;13914;48.178;11.716;2023-04-06T03:20:40;-0.20;63.90
26164;DHT22;13914;48.178;11.716;2023-04-06T03:23:06;-0.20;64.00
26164;DHT22;13914;48.178;11.716;2023-04-06T03:25:31;-0.20;64.00
26164;DHT22;13914;48.178;11.716;2023-04-06T03:27:57;-0.30;63.80
26164;DHT22;13914;48.178;11.716;2023-04-06T03:30:23;-0.30;63.90
26164;DHT22;13914;48.178;11.716;2023-04-06T03:32:48;-0.30;63.80
26164;DHT22;13914;48.178;11.716;2023-04-06T03:35:14;-0.30;63.80
26164;DHT22;13914;48.178;11.716;2023-04-06T03:37:40;-0.30;63.80
26164;DHT22;13914;48.178;11.716;2023-04-06T03:40:06;-0.40;63.80
26164;DHT22;13914;48.178;11.716;2023-04-06T03:42:32;-0.40;63.90
26164;DHT22;13914;48.178;11.716;2023-04-06T03:44:58;-0.40;63.90
26164;DHT22;13914;48.178;11.716;2023-04-06T03:47:24;-0.40;64.00
26164;DHT22;13914;48.178;11.716;2023-04-06T03:49:50;-0.50;63.90
26164;DHT22;13914;48.178;11.716;2023-04-06T03:52:16;-0.50;63.90
26164;DHT22;13914;48.178;11.716;2023-04-06T03:54:41;-0.50;63.90
26164;DHT22;13914;48.178;11.716;2023-04-06T03:57:07;-0.50;63.90
26164;DHT22;13914;48.178;11.716;2023-04-06T03:59:33;-0.50;63.80
26164;DHT22;13914;48.178;11.716;2023-04-06T04:01:58;-0.50;63.90
26164;DHT22;13914;48.178;11.716;2023-04-06T04:04:24;-0.60;63.90
26164;DHT22;13914;48.178;11.716;2023-04-06T04:06:50;-0.60;64.00
26164;DHT22;13914;48.178;11.716;2023-04-06T04:09:16;-0.60;64.00
26164;DHT22;13914;48.178;11.716;2023-04-06T04:11:41;-0.60;64.00
26164;DHT22;13914;48.178;11.716;2023-04-06T04:14:07;-0.60;64.00
26164;DHT22;13914;48.178;11.716;2023-04-06T04:16:33;-0.70;64.00
26164;DHT22;13914;48.178;11.716;2023-04-06T04:18:58;-0.70;63.90
26164;DHT22;13914;48.178;11.716;2023-04-06T04:21:24;-0.70;64.00
26164;DHT22;13914;48.178;11.716;2023-04-06T04:23:51;-0.70;63.90
26164;DHT22;13914;48.178;11.716;2023-04-06T04:26:18;-0.70;64.00
26164;DHT22;13914;48.178;11.716;2023-04-06T04:28:43;-0.70;63.90
26164;DHT22;13914;48.178;11.716;2023-04-06T04:31:09;-0.70;64.00
26164;DHT22;13914;48.178;11.716;2023-04-06T04:33:35;-0.80;63.90
26164;DHT22;13914;48.178;11.716;2023-04-06T04:36:01;-0.70;64.00
26164;DHT22;13914;48.178;11.716;2023-04-06T04:38:27;-0.80;64.10
26164;DHT22;13914;48.178;11.716;2023-04-06T04:40:52;-0.80;64.00
26164;DHT22;13914;48.178;11.716;2023-04-06T04:43:18;-0.80;64.00
26164;DHT22;13914;48.178;11.716;2023-04-06T04:45:44;-0.80;64.10
26164;DHT22;13914;48.178;11.716;2023-04-06T04:48:09;-0.80;64.10
26164;DHT22;13914;48.178;11.716;2023-04-06T04:50:35;-0.80;64.20
26164;DHT22;13914;48.178;11.716;2023-04-06T04:53:01;-0.80;64.20
26164;DHT22;13914;48.178;11.716;2023-04-06T04:55:27;-0.90;64.10
26164;DHT22;13914;48.178;11.716;2023-04-06T04:57:54;-0.90;64.00
26164;DHT22;13914;48.178;11.716;2023-04-06T05:00:20;-0.80;64.10
26164;DHT22;13914;48.178;11.716;2023-04-06T05:02:46;-0.90;64.00
26164;DHT22;13914;48.178;11.716;2023-04-06T05:05:11;-0.90;64.00
26164;DHT22;13914;48.178;11.716;2023-04-06T05:07:37;-0.90;64.10
26164;DHT22;13914;48.178;11.716;2023-04-06T05:10:03;-0.90;64.10
26164;DHT22;13914;48.178;11.716;2023-04-06T05:12:29;-0.90;64.30
26164;DHT22;13914;48.178;11.716;2023-04-06T05:14:55;-0.90;64.10
26164;DHT22;13914;48.178;11.716;2023-04-06T05:17:20;-0.90;64.20
26164;DHT22;13914;48.178;11.716;2023-04-06T05:19:46;-0.90;64.40
26164;DHT22;13914;48.178;11.716;2023-04-06T05:22:12;-0.90;64.20
26164;DHT22;13914;48.178;11.716;2023-04-06T05:24:39;-0.90;64.10
26164;DHT22;13914;48.178;11.716;2023-04-06T05:27:05;-0.90;64.30
26164;DHT22;13914;48.178;11.716;2023-04-06T05:29:31;-0.90;64.20
26164;DHT22;13914;48.178;11.716;2023-04-06T05:31:57;-0.90;64.10
26164;DHT22;13914;48.178;11.716;2023-04-06T05:34:22;-0.90;64.20
26164;DHT22;13914;48.178;11.716;2023-04-06T05:36:48;-0.90;64.10
26164;DHT22;13914;48.178;11.716;2023-04-06T05:39:14;-0.90;64.10
26164;DHT22;13914;48.178;11.716;2023-04-06T05:41:40;-0.90;64.00
26164;DHT22;13914;48.178;11.716;2023-04-06T05:44:05;-0.90;64.10
26164;DHT22;13914;48.178;11.716;2023-04-06T05:46:31;-0.80;64.10
26164;DHT22;13914;48.178;11.716;2023-04-06T05:48:57;-0.80;64.10
26164;DHT22;13914;48.178;11.716;2023-04-06T05:51:23;-0.80;64.00
26164;DHT22;13914;48.178;11.716;2023-04-06T05:53:48;-0.80;64.00
26164;DHT22;13914;48.178;11.716;2023-04-06T05:56:14;-0.80;63.90
26164;DHT22;13914;48.178;11.716;2023-04-06T05:58:40;-0.70;64.00
26164;DHT22;13914;48.178;11.716;2023-04-06T06:01:06;-0.80;63.80
26164;DHT22;13914;48.178;11.716;2023-04-06T06:03:32;-0.70;63.90
26164;DHT22;13914;48.178;11.716;2023-04-06T06:06:03;-0.70;63.80
26164;DHT22;13914;48.178;11.716;2023-04-06T06:08:30;-0.70;64.00
26164;DHT22;13914;48.178;11.716;2023-04-06T06:10:56;-0.70;64.10
26164;DHT22;13914;48.178;11.716;2023-04-06T06:13:22;-0.60;63.80
26164;DHT22;13914;48.178;11.716;2023-04-06T06:15:48;-0.60;64.00
26164;DHT22;13914;48.178;11.716;2023-04-06T06:18:14;-0.60;64.10
26164;DHT22;13914;48.178;11.716;2023-04-06T06:20:40;-0.60;64.10
26164;DHT22;13914;48.178;11.716;2023-04-06T06:23:06;-0.50;64.20
26164;DHT22;13914;48.178;11.716;2023-04-06T06:25:31;-0.50;64.30
26164;DHT22;13914;48.178;11.716;2023-04-06T06:27:58;-0.50;64.10
26164;DHT22;13914;48.178;11.716;2023-04-06T06:30:24;-0.40;64.50
26164;DHT22;13914;48.178;11.716;2023-04-06T06:32:50;-0.40;64.50
26164;DHT22;13914;48.178;11.716;2023-04-06T06:35:16;-0.40;64.50
26164;DHT22;13914;48.178;11.716;2023-04-06T06:37:42;-0.30;64.60
26164;DHT22;13914;48.178;11.716;2023-04-06T06:40:08;-0.30;64.80
26164;DHT22;13914;48.178;11.716;2023-04-06T06:42:35;-0.20;65.00
26164;DHT22;13914;48.178;11.716;2023-04-06T06:45:01;-0.20;65.10
26164;DHT22;13914;48.178;11.716;2023-04-06T06:47:27;-0.10;65.20
26164;DHT22;13914;48.178;11.716;2023-04-06T06:49:52;0.00;65.40
26164;DHT22;13914;48.178;11.716;2023-04-06T06:52:18;0.00;65.60
26164;DHT22;13914;48.178;11.716;2023-04-06T06:54:44;0.10;65.80
26164;DHT22;13914;48.178;11.716;2023-04-06T06:57:10;0.20;66.00
26164;DHT22;13914;48.178;11.716;2023-04-06T06:59:35;0.30;66.30
26164;DHT22;13914;48.178;11.716;2023-04-06T07:02:01;0.40;66.50
26164;DHT22;13914;48.178;11.716;2023-04-06T07:04:27;0.50;66.60
26164;DHT22;13914;48.178;11.716;2023-04-06T07:06:52;0.60;66.50
26164;DHT22;13914;48.178;11.716;2023-04-06T07:09:18;0.70;67.10
26164;DHT22;13914;48.178;11.716;2023-04-06T07:11:44;0.90;67.10
26164;DHT22;13914;48.178;11.716;2023-04-06T07:14:10;1.00;67.30
26164;DHT22;13914;48.178;11.716;2023-04-06T07:16:37;1.20;67.20
26164;DHT22;13914;48.178;11.716;2023-04-06T07:19:02;1.30;67.00
26164;DHT22;13914;48.178;11.716;2023-04-06T07:21:28;1.40;66.80
26164;DHT22;13914;48.178;11.716;2023-04-06T07:23:54;1.60;66.90
26164;DHT22;13914;48.178;11.716;2023-04-06T07:26:20;1.80;67.10
26164;DHT22;13914;48.178;11.716;2023-04-06T07:28:46;1.90;67.60
26164;DHT22;13914;48.178;11.716;2023-04-06T07:31:12;2.10;67.70
26164;DHT22;13914;48.178;11.716;2023-04-06T07:33:37;2.30;68.50
26164;DHT22;13914;48.178;11.716;2023-04-06T07:36:03;2.50;68.70
26164;DHT22;13914;48.178;11.716;2023-04-06T07:38:29;2.70;69.00
26164;DHT22;13914;48.178;11.716;2023-04-06T07:40:55;2.90;69.70
26164;DHT22;13914;48.178;11.716;2023-04-06T07:43:21;3.10;69.60
26164;DHT22;13914;48.178;11.716;2023-04-06T07:45:46;3.30;70.00
26164;DHT22;13914;48.178;11.716;2023-04-06T07:48:12;3.50;70.30
26164;DHT22;13914;48.178;11.716;2023-04-06T07:50:38;3.70;70.10
26164;DHT22;13914;48.178;11.716;2023-04-06T07:53:04;3.90;70.10
26164;DHT22;13914;48.178;11.716;2023-04-06T07:55:30;4.10;70.00
26164;DHT22;13914;48.178;11.716;2023-04-06T07:57:56;4.30;69.90
26164;DHT22;13914;48.178;11.716;2023-04-06T08:00:21;4.40;69.90
26164;DHT22;13914;48.178;11.716;2023-04-06T08:02:47;4.60;69.70
26164;DHT22;13914;48.178;11.716;2023-04-06T08:05:13;4.80;69.60
26164;DHT22;13914;48.178;11.716;2023-04-06T08:07:38;4.90;69.60
26164;DHT22;13914;48.178;11.716;2023-04-06T08:10:05;5.00;69.40
26164;DHT22;13914;48.178;11.716;2023-04-06T08:12:31;5.20;69.40
26164;DHT22;13914;48.178;11.716;2023-04-06T08:14:57;5.40;69.00
26164;DHT22;13914;48.178;11.716;2023-04-06T08:17:23;5.50;69.00
26164;DHT22;13914;48.178;11.716;2023-04-06T08:19:49;5.70;68.70
26164;DHT22;13914;48.178;11.716;2023-04-06T08:22:15;5.80;68.70
26164;DHT22;13914;48.178;11.716;2023-04-06T08:24:40;6.00;68.80
26164;DHT22;13914;48.178;11.716;2023-04-06T08:27:06;6.10;68.80
26164;DHT22;13914;48.178;11.716;2023-04-06T08:29:32;6.30;68.60
26164;DHT22;13914;48.178;11.716;2023-04-06T08:31:58;6.50;68.10
26164;DHT22;13914;48.178;11.716;2023-04-06T08:34:24;6.60;68.30
26164;DHT22;13914;48.178;11.716;2023-04-06T08:36:50;6.80;68.20
26164;DHT22;13914;48.178;11.716;2023-04-06T08:39:16;7.00;67.50
26164;DHT22;13914;48.178;11.716;2023-04-06T08:41:42;7.20;68.50
26164;DHT22;13914;48.178;11.716;2023-04-06T08:44:08;7.30;66.40
26164;DHT22;13914;48.178;11.716;2023-04-06T08:46:34;7.50;67.00
26164;DHT22;13914;48.178;11.716;2023-04-06T08:49:00;7.60;65.60
26164;DHT22;13914;48.178;11.716;2023-04-06T08:51:27;7.80;65.40
26164;DHT22;13914;48.178;11.716;2023-04-06T08:53:54;8.00;65.70
26164;DHT22;13914;48.178;11.716;2023-04-06T08:56:21;8.10;66.00
26164;DHT22;13914;48.178;11.716;2023-04-06T08:58:48;8.30;65.80
26164;DHT22;13914;48.178;11.716;2023-04-06T09:01:14;8.40;65.70
26164;DHT22;13914;48.178;11.716;2023-04-06T09:03:43;8.50;61.70
26164;DHT22;13914;48.178;11.716;2023-04-06T09:06:10;8.60;63.60
26164;DHT22;13914;48.178;11.716;2023-04-06T09:08:38;8.80;64.20
26164;DHT22;13914;48.178;11.716;2023-04-06T09:11:04;8.90;64.60
26164;DHT22;13914;48.178;11.716;2023-04-06T09:13:30;9.00;64.30
26164;DHT22;13914;48.178;11.716;2023-04-06T09:16:00;9.20;64.60
26164;DHT22;13914;48.178;11.716;2023-04-06T09:18:31;9.30;64.80
26164;DHT22;13914;48.178;11.716;2023-04-06T09:23:29;9.60;64.30
26164;DHT22;13914;48.178;11.716;2023-04-06T09:28:47;9.90;64.90
26164;DHT22;13914;48.178;11.716;2023-04-06T09:31:25;10.10;64.80
26164;DHT22;13914;48.178;11.716;2023-04-06T09:33:52;10.20;63.30
26164;DHT22;13914;48.178;11.716;2023-04-06T09:36:18;10.40;64.00
26164;DHT22;13914;48.178;11.716;2023-04-06T09:38:51;10.40;57.80
26164;DHT22;13914;48.178;11.716;2023-04-06T09:41:31;10.50;59.50
26164;DHT22;13914;48.178;11.716;2023-04-06T09:44:05;10.60;60.80
26164;DHT22;13914;48.178;11.716;2023-04-06T09:46:32;10.70;59.60
26164;DHT22;13914;48.178;11.716;2023-04-06T09:49:02;10.80;57.80
26164;DHT22;13914;48.178;11.716;2023-04-06T09:51:30;10.90;59.30
26164;DHT22;13914;48.178;11.716;2023-04-06T09:54:03;11.00;61.90
26164;DHT22;13914;48.178;11.716;2023-04-06T09:56:37;11.20;61.60
26164;DHT22;13914;48.178;11.716;2023-04-06T10:02:06;11.50;61.10
26164;DHT22;13914;48.178;11.716;2023-04-06T10:04:39;11.70;62.10
26164;DHT22;13914;48.178;11.716;2023-04-06T10:07:09;11.70;57.90
26164;DHT22;13914;48.178;11.716;2023-04-06T10:09:37;11.70;59.60
26164;DHT22;13914;48.178;11.716;2023-04-06T10:12:04;11.80;60.30
26164;DHT22;13914;48.178;11.716;2023-04-06T10:14:33;11.90;61.00
26164;DHT22;13914;48.178;11.716;2023-04-06T10:17:02;12.00;60.20
26164;DHT22;13914;48.178;11.716;2023-04-06T10:19:32;12.10;61.10
26164;DHT22;13914;48.178;11.716;2023-04-06T10:22:02;12.20;61.30
26164;DHT22;13914;48.178;11.716;2023-04-06T10:24:30;12.30;59.80
26164;DHT22;13914;48.178;11.716;2023-04-06T10:26:56;12.30;60.70
26164;DHT22;13914;48.178;11.716;2023-04-06T10:29:28;12.40;58.40
26164;DHT22;13914;48.178;11.716;2023-04-06T10:32:07;12.40;59.50
26164;DHT22;13914;48.178;11.716;2023-04-06T10:34:35;12.30;54.20
26164;DHT22;13914;48.178;11.716;2023-04-06T10:37:13;12.30;57.20
26164;DHT22;13914;48.178;11.716;2023-04-06T10:39:46;12.30;53.30
26164;DHT22;13914;48.178;11.716;2023-04-06T10:42:13;12.20;55.50
26164;DHT22;13914;48.178;11.716;2023-04-06T10:44:42;12.20;53.90
26164;DHT22;13914;48.178;11.716;2023-04-06T10:47:15;12.20;52.80
26164;DHT22;13914;48.178;11.716;2023-04-06T10:49:43;12.20;55.50
26164;DHT22;13914;48.178;11.716;2023-04-06T10:52:09;12.20;51.20
26164;DHT22;13914;48.178;11.716;2023-04-06T10:54:35;12.10;51.90
26164;DHT22;13914;48.178;11.716;2023-04-06T10:57:06;12.20;53.40
26164;DHT22;13914;48.178;11.716;2023-04-06T10:59:32;12.20;53.20
26164;DHT22;13914;48.178;11.716;2023-04-06T11:01:57;12.30;54.60
26164;DHT22;13914;48.178;11.716;2023-04-06T11:04:24;12.40;53.70
26164;DHT22;13914;48.178;11.716;2023-04-06T11:06:50;12.50;54.80
26164;DHT22;13914;48.178;11.716;2023-04-06T11:09:25;12.60;56.50
26164;DHT22;13914;48.178;11.716;2023-04-06T11:11:54;12.70;53.00
26164;DHT22;13914;48.178;11.716;2023-04-06T11:14:20;12.80;57.10
26164;DHT22;13914;48.178;11.716;2023-04-06T11:16:49;12.90;58.20
26164;DHT22;13914;48.178;11.716;2023-04-06T11:19:15;12.80;52.70
26164;DHT22;13914;48.178;11.716;2023-04-06T11:21:41;12.80;54.00
26164;DHT22;13914;48.178;11.716;2023-04-06T11:24:13;12.90;56.50
26164;DHT22;13914;48.178;11.716;2023-04-06T11:26:40;13.00;53.70
26164;DHT22;13914;48.178;11.716;2023-04-06T11:29:07;13.10;55.70
26164;DHT22;13914;48.178;11.716;2023-04-06T11:31:46;13.20;55.60
26164;DHT22;13914;48.178;11.716;2023-04-06T11:34:13;13.30;56.40
26164;DHT22;13914;48.178;11.716;2023-04-06T11:36:43;13.40;56.70
26164;DHT22;13914;48.178;11.716;2023-04-06T11:39:10;13.50;57.50
26164;DHT22;13914;48.178;11.716;2023-04-06T11:41:36;13.50;55.20
26164;DHT22;13914;48.178;11.716;2023-04-06T11:44:01;13.50;54.10
26164;DHT22;13914;48.178;11.716;2023-04-06T11:46:30;13.50;53.00
26164;DHT22;13914;48.178;11.716;2023-04-06T11:48:59;13.40;51.20
26164;DHT22;13914;48.178;11.716;2023-04-06T11:51:26;13.40;55.10
26164;DHT22;13914;48.178;11.716;2023-04-06T11:53:53;13.50;52.10
26164;DHT22;13914;48.178;11.716;2023-04-06T11:56:22;13.50;52.40
26164;DHT22;13914;48.178;11.716;2023-04-06T11:58:52;13.60;55.10
26164;DHT22;13914;48.178;11.716;2023-04-06T12:01:19;13.80;56.10
26164;DHT22;13914;48.178;11.716;2023-04-06T12:03:45;13.90;57.30
26164;DHT22;13914;48.178;11.716;2023-04-06T12:06:11;14.10;56.90
26164;DHT22;13914;48.178;11.716;2023-04-06T12:08:36;14.20;55.80
26164;DHT22;13914;48.178;11.716;2023-04-06T12:11:02;14.30;54.00
26164;DHT22;13914;48.178;11.716;2023-04-06T12:13:28;14.30;56.00
26164;DHT22;13914;48.178;11.716;2023-04-06T12:15:53;14.40;56.80
26164;DHT22;13914;48.178;11.716;2023-04-06T12:18:19;14.50;55.70
26164;DHT22;13914;48.178;11.716;2023-04-06T12:20:45;14.40;51.70
26164;DHT22;13914;48.178;11.716;2023-04-06T12:23:11;14.40;52.50
26164;DHT22;13914;48.178;11.716;2023-04-06T12:25:38;14.30;51.00
26164;DHT22;13914;48.178;11.716;2023-04-06T12:28:06;14.10;50.40
26164;DHT22;13914;48.178;11.716;2023-04-06T12:30:32;14.10;52.00
26164;DHT22;13914;48.178;11.716;2023-04-06T12:32:57;14.20;52.30
26164;DHT22;13914;48.178;11.716;2023-04-06T12:35:23;14.40;53.30
26164;DHT22;13914;48.178;11.716;2023-04-06T12:37:49;14.40;52.20
26164;DHT22;13914;48.178;11.716;2023-04-06T12:40:15;14.50;53.10
26164;DHT22;13914;48.178;11.716;2023-04-06T12:42:40;14.60;50.50
26164;DHT22;13914;48.178;11.716;2023-04-06T12:45:07;14.60;53.20
26164;DHT22;13914;48.178;11.716;2023-04-06T12:47:33;14.70;54.70
26164;DHT22;13914;48.178;11.716;2023-04-06T12:50:01;14.80;52.20
26164;DHT22;13914;48.178;11.716;2023-04-06T12:52:27;14.70;52.10
26164;DHT22;13914;48.178;11.716;2023-04-06T12:54:55;14.80;51.30
26164;DHT22;13914;48.178;11.716;2023-04-06T12:57:21;14.80;51.90
26164;DHT22;13914;48.178;11.716;2023-04-06T12:59:47;14.80;50.80
26164;DHT22;13914;48.178;11.716;2023-04-06T13:02:13;14.80;51.30
26164;DHT22;13914;48.178;11.716;2023-04-06T13:04:38;14.80;51.30
26164;DHT22;13914;48.178;11.716;2023-04-06T13:07:04;14.70;49.70
26164;DHT22;13914;48.178;11.716;2023-04-06T13:09:30;14.70;50.20
26164;DHT22;13914;48.178;11.716;2023-04-06T13:11:56;14.70;50.80
26164;DHT22;13914;48.178;11.716;2023-04-06T13:14:22;14.70;52.20
26164;DHT22;13914;48.178;11.716;2023-04-06T13:16:47;14.70;51.10
26164;DHT22;13914;48.178;11.716;2023-04-06T13:19:13;14.80;54.90
26164;DHT22;13914;48.178;11.716;2023-04-06T13:21:39;15.00;54.30
26164;DHT22;13914;48.178;11.716;2023-04-06T13:24:05;15.20;53.30
26164;DHT22;13914;48.178;11.716;2023-04-06T13:26:31;15.30;54.60
26164;DHT22;13914;48.178;11.716;2023-04-06T13:28:57;15.40;49.70
26164;DHT22;13914;48.178;11.716;2023-04-06T13:31:25;15.30;50.80
26164;DHT22;13914;48.178;11.716;2023-04-06T13:33:50;15.40;54.70
26164;DHT22;13914;48.178;11.716;2023-04-06T13:36:16;15.60;54.20
26164;DHT22;13914;48.178;11.716;2023-04-06T13:38:42;15.60;52.60
26164;DHT22;13914;48.178;11.716;2023-04-06T13:41:07;15.60;52.30
26164;DHT22;13914;48.178;11.716;2023-04-06T13:43:33;15.60;49.80
26164;DHT22;13914;48.178;11.716;2023-04-06T13:45:59;15.40;49.80
26164;DHT22;13914;48.178;11.716;2023-04-06T13:48:25;15.40;50.70
26164;DHT22;13914;48.178;11.716;2023-04-06T13:50:51;15.40;53.40
26164;DHT22;13914;48.178;11.716;2023-04-06T13:53:17;15.40;53.80
26164;DHT22;13914;48.178;11.716;2023-04-06T13:55:43;15.40;50.40
26164;DHT22;13914;48.178;11.716;2023-04-06T13:58:09;15.50;55.50
26164;DHT22;13914;48.178;11.716;2023-04-06T14:00:35;15.60;55.00
26164;DHT22;13914;48.178;11.716;2023-04-06T14:03:02;15.70;53.90
26164;DHT22;13914;48.178;11.716;2023-04-06T14:05:36;15.80;52.30
26164;DHT22;13914;48.178;11.716;2023-04-06T14:08:02;15.80;55.30
26164;DHT22;13914;48.178;11.716;2023-04-06T14:10:28;15.90;55.90
26164;DHT22;13914;48.178;11.716;2023-04-06T14:12:53;16.00;57.90
26164;DHT22;13914;48.178;11.716;2023-04-06T14:15:19;16.00;54.20
26164;DHT22;13914;48.178;11.716;2023-04-06T14:17:47;16.00;56.90
26164;DHT22;13914;48.178;11.716;2023-04-06T14:20:12;16.10;57.50
26164;DHT22;13914;48.178;11.716;2023-04-06T14:22:40;16.10;57.30
26164;DHT22;13914;48.178;11.716;2023-04-06T14:25:08;16.10;55.70
26164;DHT22;13914;48.178;11.716;2023-04-06T14:27:34;16.20;57.50
26164;DHT22;13914;48.178;11.716;2023-04-06T14:29:59;16.20;57.10
26164;DHT22;13914;48.178;11.716;2023-04-06T14:32:26;16.20;54.40
26164;DHT22;13914;48.178;11.716;2023-04-06T14:34:51;16.00;55.50
26164;DHT22;13914;48.178;11.716;2023-04-06T14:37:17;16.00;56.60
26164;DHT22;13914;48.178;11.716;2023-04-06T14:39:43;15.90;53.70
26164;DHT22;13914;48.178;11.716;2023-04-06T14:42:09;15.80;54.10
26164;DHT22;13914;48.178;11.716;2023-04-06T14:44:35;15.60;48.30
26164;DHT22;13914;48.178;11.716;2023-04-06T14:47:02;15.50;50.50
26164;DHT22;13914;48.178;11.716;2023-04-06T14:49:29;15.50;53.80
26164;DHT22;13914;48.178;11.716;2023-04-06T14:51:55;15.50;54.00
26164;DHT22;13914;48.178;11.716;2023-04-06T14:54:20;15.40;51.20
26164;DHT22;13914;48.178;11.716;2023-04-06T14:56:46;15.30;50.50
26164;DHT22;13914;48.178;11.716;2023-04-06T14:59:12;15.10;48.50
26164;DHT22;13914;48.178;11.716;2023-04-06T15:01:37;15.10;50.80
26164;DHT22;13914;48.178;11.716;2023-04-06T15:04:03;15.00;50.40
26164;DHT22;13914;48.178;11.716;2023-04-06T15:06:29;15.00;50.60
26164;DHT22;13914;48.178;11.716;2023-04-06T15:08:55;14.90;48.50
26164;DHT22;13914;48.178;11.716;2023-04-06T15:11:21;14.80;47.00
26164;DHT22;13914;48.178;11.716;2023-04-06T15:13:47;14.70;47.40
26164;DHT22;13914;48.178;11.716;2023-04-06T15:16:12;14.60;48.80
26164;DHT22;13914;48.178;11.716;2023-04-06T15:18:39;14.70;48.30
26164;DHT22;13914;48.178;11.716;2023-04-06T15:21:05;14.60;49.80
26164;DHT22;13914;48.178;11.716;2023-04-06T15:23:32;14.50;47.70
26164;DHT22;13914;48.178;11.716;2023-04-06T15:26:00;14.40;48.10